Time;durP1;ratioP1;P1;durP2;ratioP2;P2;SDS_P1;SDS_P2;PMS_P1;PMS_P2;Temp;Humidity;BMP_temperature;BMP_pressure;BME280_temperature;BME280_humidity;BME280_pressure;Samples;Min_cycle;Max_cycle;Signal;HPM_P1;HPM_P2
2022/05/27 00:01:07;;;;;;;2.92;2.58;;;15.30;99.90;;;;;;5098122;28;20177;-69
2022/05/27 00:03:33;;;;;;;3.67;2.50;;;15.30;99.90;;;;;;5116986;28;20176;-69
2022/05/27 00:05:59;;;;;;;4.63;2.92;;;15.30;99.90;;;;;;5116489;28;20172;-68
2022/05/27 00:08:25;;;;;;;5.00;2.83;;;15.30;99.90;;;;;;5116359;28;20200;-68
2022/05/27 00:10:52;;;;;;;5.97;3.22;;;15.30;99.90;;;;;;5098094;28;20172;-69
2022/05/27 00:13:17;;;;;;;3.95;2.88;;;15.20;99.90;;;;;;5115943;28;20177;-70
2022/05/27 00:15:43;;;;;;;4.55;2.75;;;15.20;99.90;;;;;;5116444;28;20191;-69
2022/05/27 00:18:09;;;;;;;6.28;3.10;;;15.10;99.90;;;;;;5097795;28;20621;-69
2022/05/27 00:20:36;;;;;;;4.43;2.72;;;15.10;99.90;;;;;;5116320;28;20257;-69
2022/05/27 00:23:03;;;;;;;3.63;2.95;;;15.10;99.90;;;;;;5116320;28;20502;-69
2022/05/27 00:25:29;;;;;;;4.32;2.67;;;15.10;99.90;;;;;;5115986;28;20164;-69
2022/05/27 00:27:56;;;;;;;5.22;3.00;;;15.00;99.90;;;;;;5097397;28;20192;-69
2022/05/27 00:30:23;;;;;;;7.35;3.10;;;15.10;99.90;;;;;;5115937;28;20565;-70
2022/05/27 00:32:48;;;;;;;3.60;2.75;;;15.10;99.90;;;;;;5116146;28;20177;-70
2022/05/27 00:35:14;;;;;;;4.22;3.03;;;15.00;99.90;;;;;;5115902;28;20615;-70
2022/05/27 00:37:40;;;;;;;6.10;3.13;;;15.00;99.90;;;;;;5116138;28;20248;-70
2022/05/27 00:40:08;;;;;;;5.45;2.72;;;15.00;99.90;;;;;;5097343;28;20630;-70
2022/05/27 00:42:39;;;;;;;5.57;2.75;;;15.00;99.90;;;;;;5115964;28;20240;-69
2022/05/27 00:45:05;;;;;;;3.42;3.13;;;15.00;99.90;;;;;;5115610;28;20668;-70
2022/05/27 00:47:35;;;;;;;4.13;3.15;;;15.00;99.90;;;;;;5115681;28;20218;-69
2022/05/27 00:50:05;;;;;;;4.88;3.28;;;15.00;99.90;;;;;;5115442;28;20188;-70
2022/05/27 00:52:34;;;;;;;6.50;3.50;;;15.00;99.90;;;;;;5115420;28;20175;-69
2022/05/27 00:55:01;;;;;;;4.38;3.03;;;15.00;99.90;;;;;;5115241;28;20333;-69
2022/05/27 00:57:43;;;;;;;2.97;2.75;;;15.00;99.90;;;;;;5115410;28;20179;-69
2022/05/27 01:00:18;;;;;;;6.15;3.40;;;15.00;99.90;;;;;;5115333;28;20648;-69
2022/05/27 01:02:44;;;;;;;5.97;3.60;;;14.80;99.90;;;;;;5097024;28;20244;-69
2022/05/27 01:05:12;;;;;;;4.90;3.20;;;14.70;99.90;;;;;;5115601;28;20195;-70
2022/05/27 01:07:38;;;;;;;4.22;3.50;;;14.70;99.90;;;;;;5115161;28;20255;-69
2022/05/27 01:10:07;;;;;;;4.13;3.70;;;14.50;99.90;;;;;;5115318;28;20800;-70
2022/05/27 01:13:06;;;;;;;5.65;3.90;;;14.50;99.90;;;;;;5114872;28;20168;-70
2022/05/27 01:15:41;;;;;;;5.65;3.75;;;14.40;99.90;;;;;;5115028;28;20215;-69
2022/05/27 01:18:13;;;;;;;6.97;4.30;;;14.30;99.90;;;;;;5114817;28;20601;-69
2022/05/27 01:21:07;;;;;;;5.20;4.60;;;14.20;99.90;;;;;;5114963;28;20222;-70
2022/05/27 01:23:44;;;;;;;7.07;4.65;;;14.10;99.90;;;;;;5114874;28;20168;-69
2022/05/27 01:26:34;;;;;;;5.40;4.28;;;14.00;99.90;;;;;;5114876;28;20160;-70
2022/05/27 01:29:41;;;;;;;4.93;4.30;;;13.90;99.90;;;;;;5114462;28;20192;-69
2022/05/27 01:32:10;;;;;;;7.22;4.10;;;13.90;99.90;;;;;;5012411;28;20234;-70
2022/05/27 01:34:54;;;;;;;9.45;4.57;;;13.90;99.90;;;;;;5099896;28;20216;-70
2022/05/27 01:37:49;;;;;;;8.95;4.18;;;13.90;99.90;;;;;;5115087;28;20606;-69
2022/05/27 01:40:47;;;;;;;6.13;4.32;;;13.90;99.90;;;;;;5092462;28;20741;-70
2022/05/27 01:43:31;;;;;;;6.22;4.50;;;13.90;99.90;;;;;;5114539;28;20238;-70
2022/05/27 01:46:31;;;;;;;5.55;3.90;;;13.90;99.90;;;;;;5096248;28;20184;-69
2022/05/27 01:49:26;;;;;;;7.75;4.53;;;13.90;99.90;;;;;;5114665;28;20661;-70
2022/05/27 01:52:08;;;;;;;9.43;4.60;;;13.90;99.90;;;;;;5114444;28;20165;-70
2022/05/27 01:55:00;;;;;;;6.43;5.25;;;13.90;99.90;;;;;;5114480;28;20628;-69
2022/05/27 01:57:32;;;;;;;8.27;5.15;;;13.80;99.90;;;;;;5075135;28;20192;-70
2022/05/27 02:00:12;;;;;;;9.20;5.45;;;13.70;99.90;;;;;;5114341;28;20193;-69
2022/05/27 02:02:44;;;;;;;9.27;5.72;;;13.70;99.90;;;;;;5096065;28;20182;-70
2022/05/27 02:05:38;;;;;;;7.95;5.40;;;13.60;99.90;;;;;;5096045;28;20184;-70
2022/05/27 02:08:12;;;;;;;9.25;6.00;;;13.60;99.90;;;;;;5114501;28;20188;-70
2022/05/27 02:10:50;;;;;;;11.68;6.75;;;13.50;99.90;;;;;;5114098;28;20633;-69
2022/05/27 02:13:25;;;;;;;8.38;6.20;;;13.50;99.90;;;;;;5113851;28;20161;-70
2022/05/27 02:15:52;;;;;;;8.82;6.75;;;13.40;99.90;;;;;;5095832;28;20203;-71
2022/05/27 02:18:31;;;;;;;13.43;6.85;;;13.40;99.90;;;;;;5114034;28;20194;-70
2022/05/27 02:21:32;;;;;;;10.07;6.88;;;13.40;99.90;;;;;;5114237;28;20156;-70
2022/05/27 02:24:23;;;;;;;12.32;6.70;;;13.40;99.90;;;;;;5096224;28;20188;-70
2022/05/27 02:27:22;;;;;;;10.57;7.30;;;13.30;99.90;;;;;;5114162;28;20157;-70
2022/05/27 02:29:52;;;;;;;8.70;6.38;;;13.30;99.90;;;;;;5062473;28;20208;-70
2022/05/27 02:32:31;;;;;;;10.90;6.60;;;13.40;99.90;;;;;;5114002;28;20173;-70
2022/05/27 02:35:14;;;;;;;14.15;6.93;;;13.30;99.90;;;;;;5114606;28;20188;-70
2022/05/27 02:37:42;;;;;;;10.75;7.00;;;13.30;99.90;;;;;;5114070;28;20237;-71
2022/05/27 02:40:16;;;;;;;11.70;7.20;;;13.40;99.90;;;;;;5114063;28;20207;-71
2022/05/27 02:43:08;;;;;;;12.35;8.00;;;13.40;99.90;;;;;;5095770;28;20210;-71
2022/05/27 02:45:59;;;;;;;15.55;7.68;;;13.30;99.90;;;;;;5114269;28;20230;-70
2022/05/27 02:48:33;;;;;;;11.60;7.80;;;13.40;99.90;;;;;;5095493;28;20564;-70
2022/05/27 02:51:10;;;;;;;10.93;7.05;;;13.30;99.90;;;;;;5113875;28;20178;-70
2022/05/27 02:54:09;;;;;;;8.80;7.13;;;13.30;99.90;;;;;;5114279;28;20160;-70
2022/05/27 02:57:10;;;;;;;10.50;6.78;;;13.30;99.90;;;;;;5114208;28;20221;-70
2022/05/27 02:59:38;;;;;;;11.43;7.70;;;13.40;99.90;;;;;;5061924;28;20208;-70
2022/05/27 03:02:07;;;;;;;14.30;7.43;;;13.30;99.90;;;;;;5113954;28;20286;-70
2022/05/27 03:04:33;;;;;;;12.40;7.10;;;13.40;99.90;;;;;;5095660;28;20173;-70
2022/05/27 03:07:20;;;;;;;12.80;7.72;;;13.30;99.90;;;;;;5113951;28;20179;-70
2022/05/27 03:10:01;;;;;;;15.60;7.90;;;13.30;99.90;;;;;;5113613;28;20574;-69
2022/05/27 03:13:00;;;;;;;10.88;7.30;;;13.30;99.90;;;;;;5114065;28;20632;-69
2022/05/27 03:15:35;;;;;;;11.40;8.30;;;13.20;99.90;;;;;;5095225;28;20212;-69
2022/05/27 03:18:04;;;;;;;14.65;7.35;;;13.20;99.90;;;;;;5114142;28;20191;-69
2022/05/27 03:20:51;;;;;;;11.82;7.47;;;13.20;99.90;;;;;;5095497;28;20181;-69
2022/05/27 03:23:57;;;;;;;12.63;7.30;;;13.20;99.90;;;;;;5096937;28;20171;-69
2022/05/27 03:26:31;;;;;;;9.52;7.35;;;13.10;99.90;;;;;;5117741;28;20161;-69
2022/05/27 03:29:33;;;;;;;14.07;8.38;;;13.10;99.90;;;;;;5117832;28;20191;-69
2022/05/27 03:32:14;;;;;;;10.80;7.32;;;13.00;99.90;;;;;;5099072;28;20538;-69
2022/05/27 03:34:49;;;;;;;10.38;8.00;;;12.90;99.90;;;;;;5117378;28;20197;-70
2022/05/27 03:37:29;;;;;;;12.63;7.97;;;12.80;99.90;;;;;;5117923;28;20621;-69
2022/05/27 03:40:02;;;;;;;14.48;8.00;;;12.80;99.90;;;;;;5117583;28;20184;-69
2022/05/27 03:42:30;;;;;;;13.05;7.90;;;12.80;99.90;;;;;;5099243;28;20164;-69
2022/05/27 03:45:01;;;;;;;10.48;7.80;;;12.80;99.90;;;;;;5117645;28;20168;-69
2022/05/27 03:47:27;;;;;;;11.45;7.47;;;12.80;99.90;;;;;;5119814;28;20217;-69
2022/05/27 03:49:53;;;;;;;10.68;7.43;;;12.80;99.90;;;;;;5101450;28;20287;-69
2022/05/27 03:52:23;;;;;;;10.40;7.35;;;12.70;99.90;;;;;;5100231;28;20641;-69
2022/05/27 03:54:49;;;;;;;10.40;7.15;;;12.80;99.90;;;;;;5117898;28;20200;-69
2022/05/27 03:57:14;;;;;;;11.27;7.40;;;12.80;99.90;;;;;;5117083;28;20522;-69
2022/05/27 03:59:40;;;;;;;11.35;7.72;;;12.80;99.90;;;;;;5116672;28;20279;-69
2022/05/27 04:02:06;;;;;;;13.70;7.37;;;12.80;99.90;;;;;;5116993;28;20172;-70
2022/05/27 04:04:32;;;;;;;9.50;7.05;;;12.80;99.90;;;;;;5117226;28;20536;-69
2022/05/27 04:06:58;;;;;;;9.68;6.93;;;12.80;99.90;;;;;;5116795;28;20178;-70
2022/05/27 04:09:25;;;;;;;9.70;6.38;;;12.70;99.90;;;;;;5098405;28;20212;-70
2022/05/27 04:11:54;;;;;;;6.80;5.88;;;12.70;99.90;;;;;;5116917;28;20209;-70
2022/05/27 04:14:19;;;;;;;8.45;5.80;;;12.70;99.90;;;;;;5097991;28;20196;-69
2022/05/27 04:16:45;;;;;;;7.32;6.13;;;12.60;99.90;;;;;;5117152;28;20219;-70
2022/05/27 04:19:11;;;;;;;6.88;5.60;;;12.50;99.90;;;;;;5116836;28;20196;-69
2022/05/27 04:21:38;;;;;;;5.40;4.80;;;12.40;99.90;;;;;;5116396;28;20621;-69
2022/05/27 04:24:04;;;;;;;5.10;4.38;;;12.20;99.90;;;;;;5116715;28;20183;-69
2022/05/27 04:26:30;;;;;;;5.60;4.53;;;12.10;99.90;;;;;;5116231;28;20177;-69
2022/05/27 04:28:56;;;;;;;5.70;4.80;;;12.00;99.90;;;;;;5115864;28;20218;-69
2022/05/27 04:31:22;;;;;;;7.55;4.85;;;12.00;99.90;;;;;;5116839;28;20176;-69
2022/05/27 04:33:48;;;;;;;5.87;4.60;;;11.90;99.90;;;;;;5097723;28;20180;-69
2022/05/27 04:36:15;;;;;;;5.87;4.63;;;11.80;99.90;;;;;;5116673;28;20599;-68
2022/05/27 04:38:41;;;;;;;6.70;4.40;;;11.80;99.90;;;;;;5116685;28;20196;-69
2022/05/27 04:41:07;;;;;;;5.43;4.25;;;11.80;99.90;;;;;;5117140;28;20170;-72
2022/05/27 04:43:34;;;;;;;7.17;4.60;;;11.80;99.90;;;;;;5116351;28;20177;-70
2022/05/27 04:46:00;;;;;;;7.77;4.70;;;11.70;99.90;;;;;;5115911;28;20225;-71
2022/05/27 04:48:26;;;;;;;6.83;4.80;;;11.70;99.90;;;;;;5115648;28;20676;-70
2022/05/27 04:50:52;;;;;;;6.43;4.50;;;11.70;99.90;;;;;;5116105;28;20200;-70
2022/05/27 04:53:18;;;;;;;5.57;4.60;;;11.70;99.90;;;;;;5097330;28;20599;-71
2022/05/27 04:55:44;;;;;;;8.50;5.13;;;11.60;99.90;;;;;;5115779;28;20197;-71
2022/05/27 04:58:11;;;;;;;7.30;4.67;;;11.70;99.90;;;;;;5115205;28;20199;-71
2022/05/27 05:00:43;;;;;;;5.47;4.23;;;11.70;99.90;;;;;;5115738;28;20173;-71
2022/05/27 05:03:10;;;;;;;7.27;4.70;;;11.70;99.90;;;;;;5115968;28;20539;-70
2022/05/27 05:05:37;;;;;;;9.30;4.93;;;11.70;99.90;;;;;;5115602;28;20169;-70
2022/05/27 05:08:15;;;;;;;8.43;4.73;;;11.70;99.90;;;;;;5116039;28;20560;-70
2022/05/27 05:10:41;;;;;;;4.50;4.10;;;11.70;99.90;;;;;;5115856;28;20160;-70
2022/05/27 05:13:07;;;;;;;9.60;5.00;;;11.70;99.90;;;;;;5115223;28;20625;-70
2022/05/27 05:15:33;;;;;;;7.55;4.55;;;11.80;99.90;;;;;;5115045;28;20215;-70
2022/05/27 05:17:59;;;;;;;7.27;4.93;;;11.90;99.90;;;;;;5096612;28;20176;-70
2022/05/27 05:20:31;;;;;;;6.67;4.57;;;11.90;99.90;;;;;;5115016;28;20204;-70
2022/05/27 05:22:57;;;;;;;7.28;4.75;;;11.90;99.90;;;;;;5096651;28;20176;-70
2022/05/27 05:25:23;;;;;;;7.93;5.18;;;12.00;99.90;;;;;;5096536;28;20184;-70
2022/05/27 05:27:50;;;;;;;5.90;4.60;;;12.10;99.90;;;;;;5114767;28;20177;-70
2022/05/27 05:30:17;;;;;;;12.60;4.72;;;12.10;99.90;;;;;;5114511;28;20200;-70
2022/05/27 05:32:43;;;;;;;6.03;4.65;;;12.10;99.90;;;;;;5114658;28;20191;-70
2022/05/27 05:35:11;;;;;;;6.43;5.23;;;12.00;99.90;;;;;;5114522;28;20544;-70
2022/05/27 05:37:36;;;;;;;8.95;5.47;;;12.00;99.90;;;;;;5096128;28;20175;-69
2022/05/27 05:40:03;;;;;;;6.20;5.03;;;12.00;99.90;;;;;;5114543;28;20188;-70
2022/05/27 05:42:28;;;;;;;9.77;5.30;;;12.00;99.90;;;;;;5114733;28;20598;-70
2022/05/27 05:44:55;;;;;;;8.40;5.23;;;12.00;99.90;;;;;;5095736;28;20386;-70
2022/05/27 05:47:21;;;;;;;10.93;5.90;;;12.10;99.90;;;;;;5113905;28;20206;-70
2022/05/27 05:49:47;;;;;;;9.00;5.55;;;12.10;99.90;;;;;;5114139;28;20196;-70
2022/05/27 05:52:13;;;;;;;6.45;4.85;;;12.20;99.90;;;;;;5114264;28;20187;-70
2022/05/27 05:54:39;;;;;;;7.13;5.50;;;12.20;99.90;;;;;;5114509;28;20706;-70
2022/05/27 05:57:05;;;;;;;7.82;5.95;;;12.20;99.90;;;;;;5114256;28;20168;-70
2022/05/27 05:59:34;;;;;;;8.38;6.30;;;12.20;99.90;;;;;;5114084;28;20212;-70
2022/05/27 06:02:00;;;;;;;8.18;6.47;;;12.20;99.90;;;;;;5114368;28;20365;-70
2022/05/27 06:04:27;;;;;;;8.52;6.53;;;12.20;99.90;;;;;;5114020;28;20176;-69
2022/05/27 06:06:53;;;;;;;10.35;6.45;;;12.20;99.90;;;;;;5114438;28;20160;-70
2022/05/27 06:09:22;;;;;;;11.20;6.50;;;12.30;99.90;;;;;;5114135;28;20250;-70
2022/05/27 06:11:48;;;;;;;10.87;7.17;;;12.40;99.90;;;;;;5114218;28;20172;-70
2022/05/27 06:14:14;;;;;;;12.52;7.38;;;12.40;99.90;;;;;;5095475;28;20232;-70
2022/05/27 06:16:40;;;;;;;10.90;7.13;;;12.50;99.90;;;;;;5095567;28;20176;-70
2022/05/27 06:19:07;;;;;;;10.15;6.88;;;12.50;99.90;;;;;;5096767;28;20584;-70
2022/05/27 06:21:33;;;;;;;12.82;6.97;;;12.60;99.90;;;;;;5114211;28;20168;-70
2022/05/27 06:24:01;;;;;;;10.95;7.20;;;12.60;99.90;;;;;;5095707;28;20807;-70
2022/05/27 06:26:26;;;;;;;10.77;6.68;;;12.60;99.90;;;;;;5113785;28;20624;-70
2022/05/27 06:34:31;;;;;;;8.68;6.30;;;12.80;99.90;;;;;;5113733;28;20245;-70
2022/05/27 06:37:05;;;;;;;11.10;6.60;;;12.90;99.90;;;;;;5113693;28;20176;-70
2022/05/27 06:39:34;;;;;;;9.32;6.72;;;13.00;99.90;;;;;;5114197;28;20211;-70
2022/05/27 06:42:01;;;;;;;11.00;7.00;;;12.90;99.90;;;;;;5114019;28;20149;-70
2022/05/27 06:44:26;;;;;;;9.77;7.10;;;12.80;99.90;;;;;;5113533;28;20207;-70
2022/05/27 06:46:52;;;;;;;11.38;6.88;;;12.70;99.90;;;;;;5095462;28;20174;-70
2022/05/27 06:49:19;;;;;;;9.60;6.53;;;12.80;99.90;;;;;;5095311;28;20200;-71
2022/05/27 06:51:46;;;;;;;11.13;7.53;;;12.80;99.90;;;;;;5113581;28;20227;-70
2022/05/27 06:54:12;;;;;;;8.95;6.18;;;12.80;99.90;;;;;;5113484;28;20157;-70
2022/05/27 06:56:40;;;;;;;13.95;6.93;;;12.90;99.90;;;;;;5113832;28;20546;-70
2022/05/27 06:59:07;;;;;;;14.38;7.63;;;13.00;99.90;;;;;;5098905;28;20207;-70
2022/05/27 07:01:33;;;;;;;12.20;7.05;;;13.00;99.90;;;;;;5099330;28;20169;-70
2022/05/27 07:03:59;;;;;;;10.77;7.60;;;13.00;99.90;;;;;;5117493;28;20175;-70
2022/05/27 07:06:30;;;;;;;10.32;7.18;;;13.20;99.90;;;;;;5117828;28;20173;-70
2022/05/27 07:08:56;;;;;;;11.13;7.05;;;13.10;99.90;;;;;;5117763;28;20346;-70
2022/05/27 07:11:21;;;;;;;10.10;6.88;;;13.10;99.90;;;;;;5117558;28;20241;-65
2022/05/27 07:13:47;;;;;;;12.20;7.35;;;13.20;99.90;;;;;;5117052;28;20192;-68
2022/05/27 07:16:14;;;;;;;9.07;6.38;;;13.30;99.90;;;;;;5117247;28;20239;-68
2022/05/27 07:18:40;;;;;;;11.43;6.82;;;13.40;99.90;;;;;;5098897;28;20197;-68
2022/05/27 07:21:06;;;;;;;8.82;7.57;;;13.50;99.90;;;;;;5117453;28;20161;-65
2022/05/27 07:23:33;;;;;;;13.82;7.65;;;13.60;99.90;;;;;;5117338;28;20275;-65
2022/05/27 07:25:59;;;;;;;8.80;7.18;;;13.80;99.90;;;;;;5117101;28;20233;-66
2022/05/27 07:28:25;;;;;;;11.05;7.80;;;13.80;99.90;;;;;;5117268;28;20587;-66
2022/05/27 07:30:53;;;;;;;11.20;7.22;;;13.70;99.90;;;;;;5116999;28;20220;-65
2022/05/27 07:33:19;;;;;;;14.82;9.40;;;13.70;99.90;;;;;;5116926;28;20233;-66
2022/05/27 07:35:45;;;;;;;13.55;8.68;;;13.70;99.90;;;;;;5116757;28;20602;-65
2022/05/27 07:38:10;;;;;;;11.10;8.55;;;13.80;99.90;;;;;;5098337;28;20195;-67
2022/05/27 07:40:36;;;;;;;12.48;7.55;;;13.80;99.90;;;;;;5117106;28;20157;-65
2022/05/27 07:43:02;;;;;;;12.68;7.22;;;14.00;99.90;;;;;;5116977;28;20165;-65
2022/05/27 07:45:29;;;;;;;13.27;8.07;;;14.10;99.90;;;;;;5116476;28;20174;-65
2022/05/27 07:47:56;;;;;;;12.93;8.25;;;14.20;99.90;;;;;;5116604;28;20581;-65
2022/05/27 07:50:22;;;;;;;10.23;6.93;;;14.20;99.90;;;;;;5116519;28;20665;-65
2022/05/27 07:52:49;;;;;;;15.50;7.30;;;14.20;99.90;;;;;;5098212;28;20208;-65
2022/05/27 07:55:15;;;;;;;11.70;7.65;;;14.20;99.90;;;;;;5116433;28;20193;-65
2022/05/27 07:57:46;;;;;;;9.85;7.70;;;14.40;99.90;;;;;;5098089;28;20555;-66
2022/05/27 08:00:19;;;;;;;12.05;7.63;;;14.50;99.90;;;;;;5097806;28;20197;-65
2022/05/27 08:02:45;;;;;;;11.60;7.10;;;14.50;99.90;;;;;;5116374;28;20149;-65
2022/05/27 08:05:13;;;;;;;12.20;7.10;;;14.50;99.90;;;;;;5098101;28;20176;-66
2022/05/27 08:07:40;;;;;;;10.77;6.82;;;14.40;99.90;;;;;;5116224;28;20198;-65
2022/05/27 08:10:07;;;;;;;13.68;7.40;;;14.40;99.90;;;;;;5097203;28;20679;-65
2022/05/27 08:12:33;;;;;;;9.05;6.90;;;14.40;99.90;;;;;;5116092;28;20191;-65
2022/05/27 08:14:59;;;;;;;12.93;6.53;;;14.40;99.90;;;;;;5115831;28;20668;-65
2022/05/27 08:17:25;;;;;;;11.57;6.38;;;14.50;99.90;;;;;;5097781;28;20180;-65
2022/05/27 08:19:52;;;;;;;10.95;7.00;;;14.60;99.90;;;;;;5097686;28;20192;-65
2022/05/27 08:22:18;;;;;;;10.48;6.55;;;14.70;99.90;;;;;;5116026;28;20168;-65
2022/05/27 08:24:44;;;;;;;8.63;6.07;;;14.80;99.90;;;;;;5115938;28;20177;-65
2022/05/27 08:27:10;;;;;;;7.00;5.80;;;14.90;99.90;;;;;;5116435;28;20688;-65
2022/05/27 08:29:36;;;;;;;11.82;6.40;;;15.10;99.90;;;;;;5115637;28;20203;-65
2022/05/27 08:32:03;;;;;;;8.95;5.88;;;15.40;99.90;;;;;;5115778;28;20721;-65
2022/05/27 08:40:01;;;;;;;10.35;6.15;;;15.10;99.90;;;;;;5115880;28;20230;-65
2022/05/27 08:42:39;;;;;;;10.18;5.97;;;15.20;99.90;;;;;;5097357;28;20664;-66
2022/05/27 08:45:12;;;;;;;13.32;5.97;;;15.30;99.90;;;;;;5097092;28;20172;-64
2022/05/27 08:47:46;;;;;;;9.23;5.35;;;15.50;99.90;;;;;;5115555;28;20548;-65
2022/05/27 08:50:26;;;;;;;8.45;5.32;;;15.70;99.90;;;;;;5115467;28;20194;-65
2022/05/27 08:53:14;;;;;;;7.00;5.18;;;15.90;99.90;;;;;;5097110;28;20246;-65
2022/05/27 09:01:36;;;;;;;9.57;5.70;;;16.00;99.90;;;;;;5115619;28;20152;-65
2022/05/27 09:04:41;;;;;;;6.72;5.03;;;16.10;99.90;;;;;;5115447;28;20173;-65
2022/05/27 09:07:34;;;;;;;8.40;4.95;;;16.10;99.90;;;;;;5115672;28;20200;-67
2022/05/27 09:10:03;;;;;;;6.18;4.45;;;16.10;99.90;;;;;;5094789;28;20200;-67
2022/05/27 09:12:48;;;;;;;12.40;4.90;;;16.10;99.90;;;;;;5094765;28;20263;-67
2022/05/27 09:15:59;;;;;;;7.72;4.70;;;16.10;99.90;;;;;;5076230;28;20291;-67
2022/05/27 09:18:54;;;;;;;7.00;4.68;;;16.10;99.90;;;;;;5076344;28;20177;-67
2022/05/27 09:21:31;;;;;;;8.80;5.20;;;16.20;99.90;;;;;;5091637;28;20182;-67
2022/05/27 09:24:18;;;;;;;7.57;5.13;;;16.20;99.90;;;;;;5076372;28;20215;-67
2022/05/27 09:26:52;;;;;;;6.10;5.50;;;16.10;99.90;;;;;;5076372;28;20633;-67
2022/05/27 09:29:23;;;;;;;9.13;5.65;;;16.00;99.90;;;;;;5076166;28;20189;-67
2022/05/27 09:32:30;;;;;;;12.23;5.90;;;16.00;99.90;;;;;;5095211;28;20161;-67
2022/05/27 09:35:01;;;;;;;11.73;4.70;;;15.90;99.90;;;;;;4992868;28;20770;-67
2022/05/27 09:37:35;;;;;;;7.15;4.43;;;15.70;99.90;;;;;;5078060;28;20182;-67
2022/05/27 09:40:09;;;;;;;6.85;4.70;;;15.50;99.90;;;;;;5114861;28;20184;-67
2022/05/27 09:43:00;;;;;;;11.25;4.80;;;15.40;99.90;;;;;;5096494;28;20230;-67
2022/05/27 09:45:26;;;;;;;6.03;4.43;;;15.40;99.90;;;;;;5051625;28;20241;-68
2022/05/27 09:48:00;;;;;;;7.72;4.35;;;15.50;99.90;;;;;;5114852;28;20585;-67
2022/05/27 09:50:31;;;;;;;9.25;4.35;;;15.70;99.90;;;;;;5114528;28;20200;-67
2022/05/27 09:52:58;;;;;;;10.45;4.40;;;15.70;99.90;;;;;;5114960;28;20164;-67
2022/05/27 09:55:27;;;;;;;8.52;3.80;;;16.00;99.90;;;;;;5114985;28;20204;-67
2022/05/27 09:57:59;;;;;;;8.18;4.10;;;16.40;99.90;;;;;;5114650;28;20633;-68
2022/05/27 10:00:48;;;;;;;8.27;4.00;;;16.70;99.90;;;;;;5114373;28;20214;-68
2022/05/27 10:03:27;;;;;;;8.43;3.90;;;17.00;99.90;;;;;;5096345;28;20176;-66
2022/05/27 10:06:00;;;;;;;8.15;3.60;;;17.20;99.90;;;;;;5114431;28;20168;-67
2022/05/27 10:08:32;;;;;;;9.65;4.10;;;17.30;99.90;;;;;;5114829;28;20206;-67
2022/05/27 10:11:27;;;;;;;8.27;3.70;;;17.50;99.90;;;;;;5114791;28;20156;-67
2022/05/27 10:14:17;;;;;;;5.75;3.40;;;17.50;99.90;;;;;;5114686;28;20212;-67
2022/05/27 10:16:57;;;;;;;13.10;4.32;;;17.70;99.90;;;;;;5115481;28;20196;-67
2022/05/27 10:19:24;;;;;;;12.88;4.03;;;17.70;99.90;;;;;;5116425;28;20585;-69
2022/05/27 10:21:58;;;;;;;8.30;3.33;;;17.60;99.90;;;;;;5116621;28;20213;-68
2022/05/27 10:24:32;;;;;;;8.30;3.47;;;17.70;99.90;;;;;;5115969;28;20255;-68
2022/05/27 10:27:21;;;;;;;9.80;3.65;;;17.60;99.90;;;;;;5114571;28;20502;-67
2022/05/27 10:29:50;;;;;;;5.35;3.20;;;17.80;99.90;;;;;;5096178;28;20212;-68
2022/05/27 10:32:48;;;;;;;9.20;3.90;;;17.90;99.90;;;;;;5116197;28;20196;-69
2022/05/27 10:35:20;;;;;;;7.30;3.53;;;17.50;99.90;;;;;;5062755;28;20745;-66
2022/05/27 10:37:55;;;;;;;12.70;4.22;;;17.20;99.90;;;;;;5100231;28;20188;-71
2022/05/27 10:40:39;;;;;;;5.50;3.25;;;17.20;99.90;;;;;;5103167;28;20266;-66
2022/05/27 10:43:25;;;;;;;8.93;3.60;;;17.20;99.90;;;;;;5118786;28;20161;-73
2022/05/27 10:45:57;;;;;;;11.23;3.55;;;17.40;99.90;;;;;;5118809;28;20156;-65
2022/05/27 10:48:44;;;;;;;11.32;3.88;;;17.60;99.90;;;;;;5118250;28;20153;-66
2022/05/27 10:51:36;;;;;;;8.65;3.90;;;17.60;99.90;;;;;;5118291;28;20161;-66
2022/05/27 10:54:26;;;;;;;7.72;3.67;;;17.50;99.90;;;;;;5118376;28;20164;-65
2022/05/27 11:02:46;;;;;;;6.00;3.40;;;17.60;99.90;;;;;;5118455;28;20160;-65
2022/05/27 11:05:37;;;;;;;9.43;3.78;;;18.10;99.90;;;;;;5117977;28;20176;-67
2022/05/27 11:08:21;;;;;;;9.35;3.47;;;18.20;99.90;;;;;;5099634;28;20184;-67
2022/05/27 11:11:12;;;;;;;8.73;3.55;;;18.60;99.90;;;;;;5118105;28;20625;-67
2022/05/27 11:17:04;;;;;;;10.23;3.40;;;18.50;99.90;;;;;;5118122;28;20229;-67
2022/05/27 11:19:39;;;;;;;7.53;3.13;;;17.80;99.90;;;;;;5099337;28;20302;-67
2022/05/27 11:22:08;;;;;;;10.32;3.58;;;17.40;99.90;;;;;;5117422;28;20207;-66
2022/05/27 11:24:39;;;;;;;9.00;3.72;;;17.40;99.90;;;;;;5117219;28;20207;-65
2022/05/27 11:27:17;;;;;;;11.02;3.58;;;17.50;99.90;;;;;;5117117;28;20204;-63
2022/05/27 11:30:07;;;;;;;4.25;2.78;;;17.80;99.90;;;;;;5117033;28;20213;-65
2022/05/27 11:32:38;;;;;;;8.13;3.40;;;18.20;99.90;;;;;;5118010;28;20160;-63
2022/05/27 11:35:11;;;;;;;6.45;3.35;;;18.40;99.90;;;;;;5117950;28;20219;-62
2022/05/27 11:38:03;;;;;;;5.72;2.90;;;18.40;99.90;;;;;;5101931;28;20181;-62
2022/05/27 11:40:34;;;;;;;7.50;3.45;;;18.50;99.90;;;;;;5065823;28;20208;-65
2022/05/27 11:43:19;;;;;;;8.18;3.08;;;18.80;99.90;;;;;;5119482;28;20169;-65
2022/05/27 11:46:12;;;;;;;12.13;3.95;;;19.00;99.90;;;;;;5098284;28;20164;-66
2022/05/27 11:48:47;;;;;;;11.23;3.47;;;19.20;99.90;;;;;;5118902;28;20267;-65
2022/05/27 11:51:15;;;;;;;10.40;3.50;;;18.70;99.90;;;;;;5117162;28;20192;-66
2022/05/27 11:53:58;;;;;;;9.32;3.63;;;18.10;99.90;;;;;;5117149;28;20176;-70
2022/05/27 11:56:47;;;;;;;12.25;3.50;;;18.10;99.90;;;;;;5116931;28;20237;-67
2022/05/27 11:59:17;;;;;;;8.32;3.67;;;17.90;99.90;;;;;;5116335;28;20696;-67
2022/05/27 12:02:09;;;;;;;7.53;3.95;;;18.20;99.90;;;;;;5098370;28;20188;-67
2022/05/27 12:05:04;;;;;;;8.82;3.60;;;18.60;99.90;;;;;;5065128;28;20184;-68
2022/05/27 12:07:33;;;;;;;6.75;3.10;;;19.30;99.90;;;;;;5116774;28;20157;-66
2022/05/27 12:10:25;;;;;;;9.38;3.40;;;19.50;99.90;;;;;;5116342;28;20563;-67
2022/05/27 12:13:16;;;;;;;8.70;3.30;;;18.90;99.90;;;;;;5116672;28;20157;-67
2022/05/27 12:16:02;;;;;;;8.52;3.05;;;18.60;99.90;;;;;;5116603;28;20184;-67
2022/05/27 12:18:51;;;;;;;6.57;3.00;;;18.70;99.90;;;;;;5116145;28;20192;-67
2022/05/27 12:21:22;;;;;;;6.60;3.20;;;19.00;99.90;;;;;;5116529;28;20286;-68
2022/05/27 12:23:56;;;;;;;10.25;3.40;;;18.90;99.90;;;;;;5116425;28;20157;-67
2022/05/27 12:26:29;;;;;;;6.10;3.15;;;19.10;99.90;;;;;;5116540;28;20171;-66
2022/05/27 12:28:58;;;;;;;9.80;2.97;;;19.10;99.90;;;;;;5097743;28;20196;-67
2022/05/27 12:31:24;;;;;;;10.88;2.80;;;19.20;99.90;;;;;;5115816;28;20173;-68
2022/05/27 12:33:50;;;;;;;6.47;3.42;;;19.30;99.90;;;;;;5116112;28;20168;-67
2022/05/27 12:36:48;;;;;;;7.80;3.25;;;19.10;99.90;;;;;;5100555;28;20737;-69
2022/05/27 12:39:30;;;;;;;8.88;2.72;;;19.00;99.90;;;;;;5101100;28;20203;-67
2022/05/27 12:42:26;;;;;;;10.70;3.40;;;19.20;99.90;;;;;;5097523;28;20179;-66
2022/05/27 12:44:52;;;;;;;11.27;3.45;;;19.50;99.90;;;;;;5098251;28;20189;-65
2022/05/27 12:47:28;;;;;;;7.63;3.08;;;19.70;99.90;;;;;;5116161;28;20221;-66
2022/05/27 12:50:06;;;;;;;10.45;3.15;;;19.80;99.90;;;;;;5117437;28;20725;-68
2022/05/27 12:52:32;;;;;;;8.82;3.38;;;20.10;99.90;;;;;;5115887;28;20206;-66
2022/05/27 12:55:05;;;;;;;7.20;3.25;;;20.10;99.90;;;;;;5116230;28;20193;-68
2022/05/27 13:03:06;;;;;;;9.75;2.58;;;20.10;99.90;;;;;;5115540;28;20167;-65
2022/05/27 13:06:05;;;;;;;7.65;2.90;;;20.20;99.90;;;;;;5115745;28;20175;-64
2022/05/27 13:08:43;;;;;;;7.25;2.45;;;19.90;99.90;;;;;;5097263;28;20211;-65
2022/05/27 13:11:21;;;;;;;10.48;3.33;;;20.00;99.90;;;;;;5115643;28;20623;-66
2022/05/27 13:13:51;;;;;;;7.18;2.83;;;19.40;99.90;;;;;;5096970;28;20287;-66
2022/05/27 13:16:28;;;;;;;8.50;3.00;;;19.20;99.90;;;;;;5097102;28;20249;-66
2022/05/27 13:19:04;;;;;;;9.10;3.15;;;19.40;99.90;;;;;;5115138;28;20183;-65
2022/05/27 13:21:40;;;;;;;11.27;3.30;;;19.70;99.90;;;;;;5097225;28;20206;-66
2022/05/27 13:24:12;;;;;;;7.03;2.85;;;19.90;99.90;;;;;;5115144;28;20179;-67
2022/05/27 13:26:46;;;;;;;10.55;3.17;;;19.90;99.90;;;;;;5116889;28;20180;-65
2022/05/27 13:29:25;;;;;;;11.38;3.38;;;20.40;99.90;;;;;;5115407;28;20198;-66
2022/05/27 13:32:11;;;;;;;9.48;2.95;;;20.50;99.90;;;;;;5115159;28;20156;-66
2022/05/27 13:34:55;;;;;;;7.53;2.92;;;20.20;99.90;;;;;;5096102;28;20283;-64
2022/05/27 13:37:30;;;;;;;12.73;2.90;;;20.20;99.90;;;;;;5114994;28;20165;-65
2022/05/27 13:40:03;;;;;;;12.73;3.03;;;20.20;99.90;;;;;;5114828;28;20184;-65
2022/05/27 13:42:41;;;;;;;13.43;3.78;;;20.20;99.90;;;;;;5115092;28;20163;-65
2022/05/27 13:45:33;;;;;;;8.02;3.45;;;19.60;99.90;;;;;;5114962;28;20209;-66
2022/05/27 13:48:06;;;;;;;10.80;3.22;;;18.50;99.90;;;;;;5114999;28;20160;-65
2022/05/27 13:50:39;;;;;;;7.05;3.10;;;18.10;99.90;;;;;;5096372;28;20196;-65